sensor_id;sensor_type;location;lat;lon;timestamp;temperature;humidity
16995;DHT22;8614;48.522;9.206;2024-01-30T00:00:33;2.50;99.90
16995;DHT22;8614;48.522;9.206;2024-01-30T00:03:00;2.50;99.90
16995;DHT22;8614;48.522;9.206;2024-01-30T00:05:27;2.50;99.90
16995;DHT22;8614;48.522;9.206;2024-01-30T00:07:55;2.40;99.90
16995;DHT22;8614;48.522;9.206;2024-01-30T00:10:22;2.40;99.90
16995;DHT22;8614;48.522;9.206;2024-01-30T00:12:48;2.40;99.90
16995;DHT22;8614;48.522;9.206;2024-01-30T00:15:15;2.30;99.90
16995;DHT22;8614;48.522;9.206;2024-01-30T00:17:42;2.30;99.90
16995;DHT22;8614;48.522;9.206;2024-01-30T00:20:10;2.30;99.90
16995;DHT22;8614;48.522;9.206;2024-01-30T00:22:36;2.20;99.90
16995;DHT22;8614;48.522;9.206;2024-01-30T00:25:05;2.10;99.90
16995;DHT22;8614;48.522;9.206;2024-01-30T00:27:32;2.10;99.90
16995;DHT22;8614;48.522;9.206;2024-01-30T00:29:59;2.10;99.90
16995;DHT22;8614;48.522;9.206;2024-01-30T00:32:25;2.10;99.90
16995;DHT22;8614;48.522;9.206;2024-01-30T00:34:52;2.10;99.90
16995;DHT22;8614;48.522;9.206;2024-01-30T00:37:19;2.10;99.90
16995;DHT22;8614;48.522;9.206;2024-01-30T00:39:45;2.00;99.90
16995;DHT22;8614;48.522;9.206;2024-01-30T00:42:14;2.00;99.90
16995;DHT22;8614;48.522;9.206;2024-01-30T00:44:41;2.10;99.90
16995;DHT22;8614;48.522;9.206;2024-01-30T00:47:07;2.00;99.90
16995;DHT22;8614;48.522;9.206;2024-01-30T00:49:34;2.00;99.90
16995;DHT22;8614;48.522;9.206;2024-01-30T00:52:01;1.90;99.90
16995;DHT22;8614;48.522;9.206;2024-01-30T00:54:28;1.90;99.90
16995;DHT22;8614;48.522;9.206;2024-01-30T00:56:54;1.90;99.90
16995;DHT22;8614;48.522;9.206;2024-01-30T00:59:23;1.90;99.90
16995;DHT22;8614;48.522;9.206;2024-01-30T01:01:50;1.90;99.90
16995;DHT22;8614;48.522;9.206;2024-01-30T01:04:17;1.90;99.90
16995;DHT22;8614;48.522;9.206;2024-01-30T01:06:44;1.90;99.90
16995;DHT22;8614;48.522;9.206;2024-01-30T01:09:11;1.90;99.90
16995;DHT22;8614;48.522;9.206;2024-01-30T01:11:37;2.00;99.90
16995;DHT22;8614;48.522;9.206;2024-01-30T01:14:04;2.00;99.90
16995;DHT22;8614;48.522;9.206;2024-01-30T01:16:33;2.00;99.90
16995;DHT22;8614;48.522;9.206;2024-01-30T01:19:00;2.00;99.90
16995;DHT22;8614;48.522;9.206;2024-01-30T01:21:27;2.00;99.90
16995;DHT22;8614;48.522;9.206;2024-01-30T01:23:53;2.00;99.90
16995;DHT22;8614;48.522;9.206;2024-01-30T01:26:20;2.10;99.90
16995;DHT22;8614;48.522;9.206;2024-01-30T01:28:47;2.10;99.90
16995;DHT22;8614;48.522;9.206;2024-01-30T01:31:14;2.00;99.90
16995;DHT22;8614;48.522;9.206;2024-01-30T01:33:44;2.00;99.90
16995;DHT22;8614;48.522;9.206;2024-01-30T01:36:11;2.00;99.90
16995;DHT22;8614;48.522;9.206;2024-01-30T01:38:38;2.00;99.90
16995;DHT22;8614;48.522;9.206;2024-01-30T01:41:05;1.90;99.90
16995;DHT22;8614;48.522;9.206;2024-01-30T01:43:32;1.90;99.90
16995;DHT22;8614;48.522;9.206;2024-01-30T01:45:58;2.00;99.90
16995;DHT22;8614;48.522;9.206;2024-01-30T01:48:26;2.00;99.90
16995;DHT22;8614;48.522;9.206;2024-01-30T01:50:55;2.10;99.90
16995;DHT22;8614;48.522;9.206;2024-01-30T01:53:22;2.10;99.90
16995;DHT22;8614;48.522;9.206;2024-01-30T01:55:48;2.20;99.90
16995;DHT22;8614;48.522;9.206;2024-01-30T01:58:16;2.20;99.90
16995;DHT22;8614;48.522;9.206;2024-01-30T02:00:43;2.10;99.90
16995;DHT22;8614;48.522;9.206;2024-01-30T02:03:10;2.10;99.90
16995;DHT22;8614;48.522;9.206;2024-01-30T02:05:39;2.10;99.90
16995;DHT22;8614;48.522;9.206;2024-01-30T02:08:08;2.00;99.90
16995;DHT22;8614;48.522;9.206;2024-01-30T02:10:35;2.00;99.90
16995;DHT22;8614;48.522;9.206;2024-01-30T02:13:02;1.90;99.90
16995;DHT22;8614;48.522;9.206;2024-01-30T02:15:30;1.90;99.90
16995;DHT22;8614;48.522;9.206;2024-01-30T02:17:57;1.90;99.90
16995;DHT22;8614;48.522;9.206;2024-01-30T02:20:25;1.90;99.90
16995;DHT22;8614;48.522;9.206;2024-01-30T02:22:54;1.90;99.90
16995;DHT22;8614;48.522;9.206;2024-01-30T02:25:30;1.90;99.90
16995;DHT22;8614;48.522;9.206;2024-01-30T02:27:57;1.90;99.90
16995;DHT22;8614;48.522;9.206;2024-01-30T02:30:24;1.90;99.90
16995;DHT22;8614;48.522;9.206;2024-01-30T02:32:51;1.80;99.90
16995;DHT22;8614;48.522;9.206;2024-01-30T02:35:18;1.70;99.90
16995;DHT22;8614;48.522;9.206;2024-01-30T02:37:45;1.70;99.90
16995;DHT22;8614;48.522;9.206;2024-01-30T02:40:13;1.70;99.90
16995;DHT22;8614;48.522;9.206;2024-01-30T02:42:40;1.70;99.90
16995;DHT22;8614;48.522;9.206;2024-01-30T02:45:08;1.60;99.90
16995;DHT22;8614;48.522;9.206;2024-01-30T02:47:35;1.60;99.90
16995;DHT22;8614;48.522;9.206;2024-01-30T02:50:02;1.50;99.90
16995;DHT22;8614;48.522;9.206;2024-01-30T02:52:29;1.50;99.90
16995;DHT22;8614;48.522;9.206;2024-01-30T02:54:56;1.40;99.90
16995;DHT22;8614;48.522;9.206;2024-01-30T02:57:24;1.30;99.90
16995;DHT22;8614;48.522;9.206;2024-01-30T02:59:51;1.30;99.90
16995;DHT22;8614;48.522;9.206;2024-01-30T03:02:18;1.20;99.90
16995;DHT22;8614;48.522;9.206;2024-01-30T03:04:45;1.10;99.90
16995;DHT22;8614;48.522;9.206;2024-01-30T03:07:12;1.00;99.90
16995;DHT22;8614;48.522;9.206;2024-01-30T03:09:39;1.00;99.90
16995;DHT22;8614;48.522;9.206;2024-01-30T03:12:07;0.90;99.90
16995;DHT22;8614;48.522;9.206;2024-01-30T03:14:35;0.90;99.90
16995;DHT22;8614;48.522;9.206;2024-01-30T03:17:02;0.90;99.90
16995;DHT22;8614;48.522;9.206;2024-01-30T03:19:29;0.90;99.90
16995;DHT22;8614;48.522;9.206;2024-01-30T03:21:56;0.90;99.90
16995;DHT22;8614;48.522;9.206;2024-01-30T03:24:23;0.90;99.90
16995;DHT22;8614;48.522;9.206;2024-01-30T03:26:50;0.90;99.90
16995;DHT22;8614;48.522;9.206;2024-01-30T03:29:16;0.90;99.90
16995;DHT22;8614;48.522;9.206;2024-01-30T03:31:44;1.00;99.90
16995;DHT22;8614;48.522;9.206;2024-01-30T03:34:11;1.00;99.90
16995;DHT22;8614;48.522;9.206;2024-01-30T03:36:38;1.00;99.90
16995;DHT22;8614;48.522;9.206;2024-01-30T03:39:05;1.00;99.90
16995;DHT22;8614;48.522;9.206;2024-01-30T03:41:32;1.00;99.90
16995;DHT22;8614;48.522;9.206;2024-01-30T03:43:59;1.00;99.90
16995;DHT22;8614;48.522;9.206;2024-01-30T03:46:25;1.00;99.90
16995;DHT22;8614;48.522;9.206;2024-01-30T03:48:54;1.00;99.90
16995;DHT22;8614;48.522;9.206;2024-01-30T03:51:20;1.00;99.90
16995;DHT22;8614;48.522;9.206;2024-01-30T03:53:47;1.00;99.90
16995;DHT22;8614;48.522;9.206;2024-01-30T03:56:14;0.90;99.90
16995;DHT22;8614;48.522;9.206;2024-01-30T03:58:41;0.90;99.90
16995;DHT22;8614;48.522;9.206;2024-01-30T04:01:12;0.90;99.90
16995;DHT22;8614;48.522;9.206;2024-01-30T04:03:39;0.80;99.90
16995;DHT22;8614;48.522;9.206;2024-01-30T04:06:07;0.90;99.90
16995;DHT22;8614;48.522;9.206;2024-01-30T04:08:34;0.90;99.90
16995;DHT22;8614;48.522;9.206;2024-01-30T04:11:03;0.90;99.90
16995;DHT22;8614;48.522;9.206;2024-01-30T04:13:31;0.90;99.90
16995;DHT22;8614;48.522;9.206;2024-01-30T04:15:59;0.90;99.90
16995;DHT22;8614;48.522;9.206;2024-01-30T04:18:25;0.90;99.90
16995;DHT22;8614;48.522;9.206;2024-01-30T04:20:52;0.90;99.90
16995;DHT22;8614;48.522;9.206;2024-01-30T04:23:20;0.90;99.90
16995;DHT22;8614;48.522;9.206;2024-01-30T04:25:47;0.80;99.90
16995;DHT22;8614;48.522;9.206;2024-01-30T04:28:14;0.80;99.90
16995;DHT22;8614;48.522;9.206;2024-01-30T04:30:41;0.80;99.90
16995;DHT22;8614;48.522;9.206;2024-01-30T04:33:08;0.70;99.90
16995;DHT22;8614;48.522;9.206;2024-01-30T04:35:34;0.70;99.90
16995;DHT22;8614;48.522;9.206;2024-01-30T04:38:02;0.70;99.90
16995;DHT22;8614;48.522;9.206;2024-01-30T04:40:30;0.70;99.90
16995;DHT22;8614;48.522;9.206;2024-01-30T04:42:57;0.80;99.90
16995;DHT22;8614;48.522;9.206;2024-01-30T04:45:24;0.80;99.90
16995;DHT22;8614;48.522;9.206;2024-01-30T04:47:50;0.80;99.90
16995;DHT22;8614;48.522;9.206;2024-01-30T04:50:17;0.70;99.90
16995;DHT22;8614;48.522;9.206;2024-01-30T04:52:44;0.70;99.90
16995;DHT22;8614;48.522;9.206;2024-01-30T04:55:11;0.70;99.90
16995;DHT22;8614;48.522;9.206;2024-01-30T04:57:39;0.70;99.90
16995;DHT22;8614;48.522;9.206;2024-01-30T05:00:07;0.70;99.90
16995;DHT22;8614;48.522;9.206;2024-01-30T05:02:34;0.80;99.90
16995;DHT22;8614;48.522;9.206;2024-01-30T05:05:01;0.80;99.90
16995;DHT22;8614;48.522;9.206;2024-01-30T05:07:28;0.80;99.90
16995;DHT22;8614;48.522;9.206;2024-01-30T05:09:55;0.80;99.90
16995;DHT22;8614;48.522;9.206;2024-01-30T05:12:21;0.80;99.90
16995;DHT22;8614;48.522;9.206;2024-01-30T05:14:49;0.90;99.90
16995;DHT22;8614;48.522;9.206;2024-01-30T05:17:16;0.90;99.90
16995;DHT22;8614;48.522;9.206;2024-01-30T05:19:43;1.00;99.90
16995;DHT22;8614;48.522;9.206;2024-01-30T05:22:10;1.00;99.90
16995;DHT22;8614;48.522;9.206;2024-01-30T05:24:41;0.90;99.90
16995;DHT22;8614;48.522;9.206;2024-01-30T05:27:08;0.90;99.90
16995;DHT22;8614;48.522;9.206;2024-01-30T05:29:35;1.00;99.90
16995;DHT22;8614;48.522;9.206;2024-01-30T05:32:03;1.00;99.90
16995;DHT22;8614;48.522;9.206;2024-01-30T05:34:30;0.90;99.90
16995;DHT22;8614;48.522;9.206;2024-01-30T05:36:57;0.90;99.90
16995;DHT22;8614;48.522;9.206;2024-01-30T05:39:24;0.90;99.90
16995;DHT22;8614;48.522;9.206;2024-01-30T05:41:51;0.80;99.90
16995;DHT22;8614;48.522;9.206;2024-01-30T05:44:17;0.80;99.90
16995;DHT22;8614;48.522;9.206;2024-01-30T05:46:44;0.80;99.90
16995;DHT22;8614;48.522;9.206;2024-01-30T05:49:12;0.80;99.90
16995;DHT22;8614;48.522;9.206;2024-01-30T05:51:39;0.80;99.90
16995;DHT22;8614;48.522;9.206;2024-01-30T05:54:06;0.80;99.90
16995;DHT22;8614;48.522;9.206;2024-01-30T05:56:33;0.80;99.90
16995;DHT22;8614;48.522;9.206;2024-01-30T05:58:59;0.80;99.90
16995;DHT22;8614;48.522;9.206;2024-01-30T06:01:26;0.80;99.90
16995;DHT22;8614;48.522;9.206;2024-01-30T06:03:54;0.90;99.90
16995;DHT22;8614;48.522;9.206;2024-01-30T06:06:22;0.90;99.90
16995;DHT22;8614;48.522;9.206;2024-01-30T06:08:49;0.90;99.90
16995;DHT22;8614;48.522;9.206;2024-01-30T06:11:16;1.00;99.90
16995;DHT22;8614;48.522;9.206;2024-01-30T06:13:43;0.90;99.90
16995;DHT22;8614;48.522;9.206;2024-01-30T06:16:10;0.90;99.90
16995;DHT22;8614;48.522;9.206;2024-01-30T06:18:37;0.80;99.90
16995;DHT22;8614;48.522;9.206;2024-01-30T06:21:04;0.80;99.90
16995;DHT22;8614;48.522;9.206;2024-01-30T06:23:33;0.80;99.90
16995;DHT22;8614;48.522;9.206;2024-01-30T06:25:59;0.80;99.90
16995;DHT22;8614;48.522;9.206;2024-01-30T06:28:26;0.70;99.90
16995;DHT22;8614;48.522;9.206;2024-01-30T06:30:53;0.70;99.90
16995;DHT22;8614;48.522;9.206;2024-01-30T06:33:20;0.60;99.90
16995;DHT22;8614;48.522;9.206;2024-01-30T06:35:46;0.60;99.90
16995;DHT22;8614;48.522;9.206;2024-01-30T06:38:13;0.60;99.90
16995;DHT22;8614;48.522;9.206;2024-01-30T06:40:42;0.60;99.90
16995;DHT22;8614;48.522;9.206;2024-01-30T06:43:09;0.60;99.90
16995;DHT22;8614;48.522;9.206;2024-01-30T06:45:36;0.50;99.90
16995;DHT22;8614;48.522;9.206;2024-01-30T06:48:04;0.60;99.90
16995;DHT22;8614;48.522;9.206;2024-01-30T06:50:30;0.60;99.90
16995;DHT22;8614;48.522;9.206;2024-01-30T06:52:57;0.60;99.90
16995;DHT22;8614;48.522;9.206;2024-01-30T06:55:24;0.60;99.90
16995;DHT22;8614;48.522;9.206;2024-01-30T06:57:52;0.60;99.90
16995;DHT22;8614;48.522;9.206;2024-01-30T07:00:19;0.60;99.90
16995;DHT22;8614;48.522;9.206;2024-01-30T07:02:47;0.60;99.90
16995;DHT22;8614;48.522;9.206;2024-01-30T07:05:13;0.60;99.90
16995;DHT22;8614;48.522;9.206;2024-01-30T07:07:41;0.70;99.90
16995;DHT22;8614;48.522;9.206;2024-01-30T07:10:08;0.80;99.90
16995;DHT22;8614;48.522;9.206;2024-01-30T07:12:35;0.90;99.90
16995;DHT22;8614;48.522;9.206;2024-01-30T07:15:04;1.00;99.90
16995;DHT22;8614;48.522;9.206;2024-01-30T07:17:33;1.10;99.90
16995;DHT22;8614;48.522;9.206;2024-01-30T07:20:00;1.20;99.90
16995;DHT22;8614;48.522;9.206;2024-01-30T07:22:29;1.30;99.90
16995;DHT22;8614;48.522;9.206;2024-01-30T07:24:55;1.40;99.90
16995;DHT22;8614;48.522;9.206;2024-01-30T07:27:23;1.40;99.90
16995;DHT22;8614;48.522;9.206;2024-01-30T07:29:50;1.50;99.90
16995;DHT22;8614;48.522;9.206;2024-01-30T07:32:18;1.50;99.90
16995;DHT22;8614;48.522;9.206;2024-01-30T07:34:45;1.60;99.90
16995;DHT22;8614;48.522;9.206;2024-01-30T07:37:12;1.60;99.90
16995;DHT22;8614;48.522;9.206;2024-01-30T07:39:41;1.60;99.90
16995;DHT22;8614;48.522;9.206;2024-01-30T07:42:08;1.80;99.90
16995;DHT22;8614;48.522;9.206;2024-01-30T07:44:35;1.80;99.90
16995;DHT22;8614;48.522;9.206;2024-01-30T07:47:02;2.00;99.90
16995;DHT22;8614;48.522;9.206;2024-01-30T07:49:30;2.10;99.90
16995;DHT22;8614;48.522;9.206;2024-01-30T07:51:57;2.20;99.90
16995;DHT22;8614;48.522;9.206;2024-01-30T07:54:25;2.30;99.90
16995;DHT22;8614;48.522;9.206;2024-01-30T07:56:52;2.40;99.90
16995;DHT22;8614;48.522;9.206;2024-01-30T07:59:19;2.60;99.90
16995;DHT22;8614;48.522;9.206;2024-01-30T08:01:47;2.70;99.90
16995;DHT22;8614;48.522;9.206;2024-01-30T08:04:14;2.80;99.90
16995;DHT22;8614;48.522;9.206;2024-01-30T08:06:42;2.90;99.90
16995;DHT22;8614;48.522;9.206;2024-01-30T08:09:09;3.00;99.90
16995;DHT22;8614;48.522;9.206;2024-01-30T08:11:39;3.10;99.90
16995;DHT22;8614;48.522;9.206;2024-01-30T08:14:05;3.30;99.90
16995;DHT22;8614;48.522;9.206;2024-01-30T08:16:32;3.30;99.90
16995;DHT22;8614;48.522;9.206;2024-01-30T08:18:59;3.50;99.90
16995;DHT22;8614;48.522;9.206;2024-01-30T08:21:26;3.60;99.90
16995;DHT22;8614;48.522;9.206;2024-01-30T08:23:54;3.80;99.90
16995;DHT22;8614;48.522;9.206;2024-01-30T08:26:21;4.00;99.90
16995;DHT22;8614;48.522;9.206;2024-01-30T08:28:48;4.30;99.90
16995;DHT22;8614;48.522;9.206;2024-01-30T08:31:15;4.70;99.90
16995;DHT22;8614;48.522;9.206;2024-01-30T08:33:42;5.00;99.90
16995;DHT22;8614;48.522;9.206;2024-01-30T08:36:09;5.30;99.90
16995;DHT22;8614;48.522;9.206;2024-01-30T08:38:36;5.70;99.90
16995;DHT22;8614;48.522;9.206;2024-01-30T08:41:04;6.00;99.90
16995;DHT22;8614;48.522;9.206;2024-01-30T08:43:31;6.20;99.90
16995;DHT22;8614;48.522;9.206;2024-01-30T08:45:59;6.40;99.90
16995;DHT22;8614;48.522;9.206;2024-01-30T08:48:26;6.60;99.90
16995;DHT22;8614;48.522;9.206;2024-01-30T08:50:52;6.80;99.90
16995;DHT22;8614;48.522;9.206;2024-01-30T08:53:19;6.90;99.90
16995;DHT22;8614;48.522;9.206;2024-01-30T08:55:46;7.10;99.90
16995;DHT22;8614;48.522;9.206;2024-01-30T08:58:14;7.30;99.90
16995;DHT22;8614;48.522;9.206;2024-01-30T09:00:43;7.40;99.90
16995;DHT22;8614;48.522;9.206;2024-01-30T09:03:10;7.30;99.90
16995;DHT22;8614;48.522;9.206;2024-01-30T09:05:37;7.20;99.90
16995;DHT22;8614;48.522;9.206;2024-01-30T09:08:04;7.20;99.90
16995;DHT22;8614;48.522;9.206;2024-01-30T09:10:31;7.20;99.90
16995;DHT22;8614;48.522;9.206;2024-01-30T09:12:58;7.20;99.90
16995;DHT22;8614;48.522;9.206;2024-01-30T09:15:26;7.20;99.90
16995;DHT22;8614;48.522;9.206;2024-01-30T09:17:52;7.10;99.90
16995;DHT22;8614;48.522;9.206;2024-01-30T09:20:19;7.20;99.90
16995;DHT22;8614;48.522;9.206;2024-01-30T09:22:47;7.10;99.90
16995;DHT22;8614;48.522;9.206;2024-01-30T09:25:14;7.10;99.90
16995;DHT22;8614;48.522;9.206;2024-01-30T09:27:41;7.10;99.90
16995;DHT22;8614;48.522;9.206;2024-01-30T09:30:09;7.10;99.90
16995;DHT22;8614;48.522;9.206;2024-01-30T09:32:37;7.20;99.90
16995;DHT22;8614;48.522;9.206;2024-01-30T09:35:04;7.30;99.90
16995;DHT22;8614;48.522;9.206;2024-01-30T09:37:31;7.40;99.90
16995;DHT22;8614;48.522;9.206;2024-01-30T09:39:58;7.50;99.90
16995;DHT22;8614;48.522;9.206;2024-01-30T09:42:28;7.50;99.90
16995;DHT22;8614;48.522;9.206;2024-01-30T09:44:57;7.70;99.90
16995;DHT22;8614;48.522;9.206;2024-01-30T09:47:24;7.80;99.90
16995;DHT22;8614;48.522;9.206;2024-01-30T09:49:52;7.80;99.90
16995;DHT22;8614;48.522;9.206;2024-01-30T09:52:19;7.90;99.90
16995;DHT22;8614;48.522;9.206;2024-01-30T09:54:48;7.90;99.90
16995;DHT22;8614;48.522;9.206;2024-01-30T09:57:16;7.90;99.90
16995;DHT22;8614;48.522;9.206;2024-01-30T09:59:42;7.90;99.90
16995;DHT22;8614;48.522;9.206;2024-01-30T10:02:09;7.90;99.90
16995;DHT22;8614;48.522;9.206;2024-01-30T10:04:36;7.90;99.90
16995;DHT22;8614;48.522;9.206;2024-01-30T10:07:05;7.90;99.90
16995;DHT22;8614;48.522;9.206;2024-01-30T10:09:33;7.90;99.90
16995;DHT22;8614;48.522;9.206;2024-01-30T10:12:01;7.80;99.90
16995;DHT22;8614;48.522;9.206;2024-01-30T10:14:29;7.70;99.90
16995;DHT22;8614;48.522;9.206;2024-01-30T10:16:57;7.80;99.90
16995;DHT22;8614;48.522;9.206;2024-01-30T10:19:24;7.80;99.90
16995;DHT22;8614;48.522;9.206;2024-01-30T10:21:51;7.70;99.90
16995;DHT22;8614;48.522;9.206;2024-01-30T10:24:24;7.70;99.90
16995;DHT22;8614;48.522;9.206;2024-01-30T10:26:51;7.70;99.90
16995;DHT22;8614;48.522;9.206;2024-01-30T10:29:17;7.70;99.90
16995;DHT22;8614;48.522;9.206;2024-01-30T10:31:44;7.70;99.90
16995;DHT22;8614;48.522;9.206;2024-01-30T10:34:12;7.80;99.90
16995;DHT22;8614;48.522;9.206;2024-01-30T10:36:40;7.80;99.90
16995;DHT22;8614;48.522;9.206;2024-01-30T10:39:08;7.80;99.90
16995;DHT22;8614;48.522;9.206;2024-01-30T10:41:44;7.90;99.90
16995;DHT22;8614;48.522;9.206;2024-01-30T10:44:11;8.00;99.90
16995;DHT22;8614;48.522;9.206;2024-01-30T10:46:39;8.00;99.90
16995;DHT22;8614;48.522;9.206;2024-01-30T10:49:09;8.10;99.90
16995;DHT22;8614;48.522;9.206;2024-01-30T10:51:37;8.20;99.90
16995;DHT22;8614;48.522;9.206;2024-01-30T10:54:05;8.30;99.90
16995;DHT22;8614;48.522;9.206;2024-01-30T10:56:33;8.30;99.90
16995;DHT22;8614;48.522;9.206;2024-01-30T10:59:02;8.40;99.90
16995;DHT22;8614;48.522;9.206;2024-01-30T11:01:30;8.50;99.90
16995;DHT22;8614;48.522;9.206;2024-01-30T11:03:57;8.50;99.90
16995;DHT22;8614;48.522;9.206;2024-01-30T11:06:25;8.60;99.90
16995;DHT22;8614;48.522;9.206;2024-01-30T11:09:01;8.70;99.90
16995;DHT22;8614;48.522;9.206;2024-01-30T11:11:29;8.90;99.90
16995;DHT22;8614;48.522;9.206;2024-01-30T11:14:00;8.90;99.90
16995;DHT22;8614;48.522;9.206;2024-01-30T11:16:32;8.90;99.90
16995;DHT22;8614;48.522;9.206;2024-01-30T11:19:00;9.00;99.90
16995;DHT22;8614;48.522;9.206;2024-01-30T11:21:27;9.10;99.90
16995;DHT22;8614;48.522;9.206;2024-01-30T11:23:55;9.20;99.90
16995;DHT22;8614;48.522;9.206;2024-01-30T11:26:27;9.30;99.90
16995;DHT22;8614;48.522;9.206;2024-01-30T11:28:55;9.40;99.90
16995;DHT22;8614;48.522;9.206;2024-01-30T11:31:22;9.50;99.90
16995;DHT22;8614;48.522;9.206;2024-01-30T11:33:53;9.60;99.90
16995;DHT22;8614;48.522;9.206;2024-01-30T11:36:25;9.70;99.90
16995;DHT22;8614;48.522;9.206;2024-01-30T11:38:52;9.80;99.90
16995;DHT22;8614;48.522;9.206;2024-01-30T11:41:20;9.90;99.90
16995;DHT22;8614;48.522;9.206;2024-01-30T11:43:52;9.90;99.90
16995;DHT22;8614;48.522;9.206;2024-01-30T11:46:18;9.90;99.90
16995;DHT22;8614;48.522;9.206;2024-01-30T11:48:45;10.00;99.90
16995;DHT22;8614;48.522;9.206;2024-01-30T11:51:14;10.00;99.90
16995;DHT22;8614;48.522;9.206;2024-01-30T11:53:44;10.00;99.90
16995;DHT22;8614;48.522;9.206;2024-01-30T11:56:12;10.10;99.90
16995;DHT22;8614;48.522;9.206;2024-01-30T11:58:42;10.20;99.90
16995;DHT22;8614;48.522;9.206;2024-01-30T12:01:09;10.20;99.90
16995;DHT22;8614;48.522;9.206;2024-01-30T12:03:36;10.30;99.90
16995;DHT22;8614;48.522;9.206;2024-01-30T12:06:03;10.40;99.90
16995;DHT22;8614;48.522;9.206;2024-01-30T12:08:32;10.50;99.90
16995;DHT22;8614;48.522;9.206;2024-01-30T12:10:58;10.60;99.90
16995;DHT22;8614;48.522;9.206;2024-01-30T12:13:27;10.70;99.90
16995;DHT22;8614;48.522;9.206;2024-01-30T12:15:54;10.70;99.90
16995;DHT22;8614;48.522;9.206;2024-01-30T12:18:21;10.80;99.90
16995;DHT22;8614;48.522;9.206;2024-01-30T12:20:57;10.80;99.90
16995;DHT22;8614;48.522;9.206;2024-01-30T12:23:24;10.80;99.90
16995;DHT22;8614;48.522;9.206;2024-01-30T12:25:52;10.90;99.90
16995;DHT22;8614;48.522;9.206;2024-01-30T12:28:20;11.00;99.90
16995;DHT22;8614;48.522;9.206;2024-01-30T12:30:47;11.00;99.90
16995;DHT22;8614;48.522;9.206;2024-01-30T12:33:16;11.00;99.90
16995;DHT22;8614;48.522;9.206;2024-01-30T12:35:45;11.00;99.90
16995;DHT22;8614;48.522;9.206;2024-01-30T12:38:12;11.10;99.90
16995;DHT22;8614;48.522;9.206;2024-01-30T12:40:39;11.10;99.90
16995;DHT22;8614;48.522;9.206;2024-01-30T12:43:08;11.30;99.90
16995;DHT22;8614;48.522;9.206;2024-01-30T12:45:36;11.40;99.90
16995;DHT22;8614;48.522;9.206;2024-01-30T12:48:03;11.40;99.90
16995;DHT22;8614;48.522;9.206;2024-01-30T12:50:30;11.60;99.90
16995;DHT22;8614;48.522;9.206;2024-01-30T12:52:57;11.70;99.90
16995;DHT22;8614;48.522;9.206;2024-01-30T12:55:24;11.70;99.90
16995;DHT22;8614;48.522;9.206;2024-01-30T12:57:53;11.80;99.90
16995;DHT22;8614;48.522;9.206;2024-01-30T13:00:22;11.90;99.90
16995;DHT22;8614;48.522;9.206;2024-01-30T13:02:49;12.00;99.90
16995;DHT22;8614;48.522;9.206;2024-01-30T13:05:16;12.00;99.90
16995;DHT22;8614;48.522;9.206;2024-01-30T13:07:43;12.00;99.90
16995;DHT22;8614;48.522;9.206;2024-01-30T13:10:10;12.10;99.90
16995;DHT22;8614;48.522;9.206;2024-01-30T13:12:36;12.10;99.90
16995;DHT22;8614;48.522;9.206;2024-01-30T13:15:04;12.20;99.90
16995;DHT22;8614;48.522;9.206;2024-01-30T13:17:33;12.30;99.90
16995;DHT22;8614;48.522;9.206;2024-01-30T13:19:59;12.30;99.90
16995;DHT22;8614;48.522;9.206;2024-01-30T13:22:26;12.30;99.90
16995;DHT22;8614;48.522;9.206;2024-01-30T13:24:53;12.30;99.90
16995;DHT22;8614;48.522;9.206;2024-01-30T13:27:20;12.30;99.90
16995;DHT22;8614;48.522;9.206;2024-01-30T13:29:47;12.20;99.90
16995;DHT22;8614;48.522;9.206;2024-01-30T13:32:14;12.20;99.90
16995;DHT22;8614;48.522;9.206;2024-01-30T13:34:42;12.20;99.90
16995;DHT22;8614;48.522;9.206;2024-01-30T13:37:09;12.20;99.90
16995;DHT22;8614;48.522;9.206;2024-01-30T13:39:36;12.10;99.90
16995;DHT22;8614;48.522;9.206;2024-01-30T13:42:04;12.10;99.90
16995;DHT22;8614;48.522;9.206;2024-01-30T13:44:31;12.00;99.90
16995;DHT22;8614;48.522;9.206;2024-01-30T13:46:58;12.00;99.90
16995;DHT22;8614;48.522;9.206;2024-01-30T13:49:25;12.00;99.90
16995;DHT22;8614;48.522;9.206;2024-01-30T13:51:54;12.00;99.90
16995;DHT22;8614;48.522;9.206;2024-01-30T13:54:20;12.00;99.90
16995;DHT22;8614;48.522;9.206;2024-01-30T13:56:47;12.00;99.90
16995;DHT22;8614;48.522;9.206;2024-01-30T13:59:14;12.00;99.90
16995;DHT22;8614;48.522;9.206;2024-01-30T14:01:41;12.00;99.90
16995;DHT22;8614;48.522;9.206;2024-01-30T14:04:07;12.00;99.90
16995;DHT22;8614;48.522;9.206;2024-01-30T14:06:34;12.10;99.90
16995;DHT22;8614;48.522;9.206;2024-01-30T14:09:02;12.10;99.90
16995;DHT22;8614;48.522;9.206;2024-01-30T14:11:29;12.10;99.90
16995;DHT22;8614;48.522;9.206;2024-01-30T14:13:56;12.20;99.90
16995;DHT22;8614;48.522;9.206;2024-01-30T14:16:23;12.20;99.90
16995;DHT22;8614;48.522;9.206;2024-01-30T14:18:50;12.20;99.90
16995;DHT22;8614;48.522;9.206;2024-01-30T14:21:17;12.20;99.90
16995;DHT22;8614;48.522;9.206;2024-01-30T14:23:44;12.30;99.90
16995;DHT22;8614;48.522;9.206;2024-01-30T14:26:14;12.30;99.90
16995;DHT22;8614;48.522;9.206;2024-01-30T14:28:40;12.30;99.90
16995;DHT22;8614;48.522;9.206;2024-01-30T14:31:09;12.30;99.90
16995;DHT22;8614;48.522;9.206;2024-01-30T14:33:37;12.30;99.90
16995;DHT22;8614;48.522;9.206;2024-01-30T14:36:04;12.30;99.90
16995;DHT22;8614;48.522;9.206;2024-01-30T14:38:31;12.30;99.90
16995;DHT22;8614;48.522;9.206;2024-01-30T14:40:58;12.30;99.90
16995;DHT22;8614;48.522;9.206;2024-01-30T14:43:26;12.30;99.90
16995;DHT22;8614;48.522;9.206;2024-01-30T14:45:52;12.30;99.90
16995;DHT22;8614;48.522;9.206;2024-01-30T14:48:19;12.30;99.90
16995;DHT22;8614;48.522;9.206;2024-01-30T14:50:46;12.30;99.90
16995;DHT22;8614;48.522;9.206;2024-01-30T14:53:13;12.20;99.90
16995;DHT22;8614;48.522;9.206;2024-01-30T14:55:40;12.20;99.90
16995;DHT22;8614;48.522;9.206;2024-01-30T14:58:06;12.10;99.90
16995;DHT22;8614;48.522;9.206;2024-01-30T15:00:35;12.10;99.90
16995;DHT22;8614;48.522;9.206;2024-01-30T15:03:04;12.10;99.90
16995;DHT22;8614;48.522;9.206;2024-01-30T15:05:30;12.00;99.90
16995;DHT22;8614;48.522;9.206;2024-01-30T15:07:57;12.00;99.90
16995;DHT22;8614;48.522;9.206;2024-01-30T15:10:24;11.90;99.90
16995;DHT22;8614;48.522;9.206;2024-01-30T15:12:51;11.90;99.90
16995;DHT22;8614;48.522;9.206;2024-01-30T15:15:18;11.80;99.90
16995;DHT22;8614;48.522;9.206;2024-01-30T15:17:46;11.80;99.90
16995;DHT22;8614;48.522;9.206;2024-01-30T15:20:13;11.70;99.90
16995;DHT22;8614;48.522;9.206;2024-01-30T15:22:40;11.60;99.90
16995;DHT22;8614;48.522;9.206;2024-01-30T15:25:07;11.60;99.90
16995;DHT22;8614;48.522;9.206;2024-01-30T15:27:33;11.50;99.90
16995;DHT22;8614;48.522;9.206;2024-01-30T15:30:00;11.40;99.90
16995;DHT22;8614;48.522;9.206;2024-01-30T15:32:27;11.40;99.90
16995;DHT22;8614;48.522;9.206;2024-01-30T15:34:55;11.30;99.90
16995;DHT22;8614;48.522;9.206;2024-01-30T15:37:22;11.20;99.90
16995;DHT22;8614;48.522;9.206;2024-01-30T15:39:49;11.10;99.90
16995;DHT22;8614;48.522;9.206;2024-01-30T15:42:15;11.00;99.90
16995;DHT22;8614;48.522;9.206;2024-01-30T15:44:42;10.90;99.90
16995;DHT22;8614;48.522;9.206;2024-01-30T15:47:09;10.80;99.90
16995;DHT22;8614;48.522;9.206;2024-01-30T15:49:36;10.70;99.90
16995;DHT22;8614;48.522;9.206;2024-01-30T15:52:05;10.70;99.90
16995;DHT22;8614;48.522;9.206;2024-01-30T15:54:31;10.60;99.90
16995;DHT22;8614;48.522;9.206;2024-01-30T15:56:58;10.50;99.90